sensor_id;sensor_type;location;lat;lon;timestamp;P1;durP1;ratioP1;P2;durP2;ratioP2
10705;SDS011;5404;42.656;23.336;2023-08-12T00:01:05;6.30;;;3.65;;
10705;SDS011;5404;42.656;23.336;2023-08-12T00:03:30;6.85;;;3.38;;
10705;SDS011;5404;42.656;23.336;2023-08-12T00:05:57;8.55;;;3.38;;
10705;SDS011;5404;42.656;23.336;2023-08-12T00:08:25;7.55;;;3.83;;
10705;SDS011;5404;42.656;23.336;2023-08-12T00:10:51;10.07;;;4.05;;
10705;SDS011;5404;42.656;23.336;2023-08-12T00:13:16;3.92;;;3.20;;
10705;SDS011;5404;42.656;23.336;2023-08-12T00:15:42;5.05;;;3.60;;
10705;SDS011;5404;42.656;23.336;2023-08-12T00:18:09;11.63;;;3.80;;
10705;SDS011;5404;42.656;23.336;2023-08-12T00:20:35;9.93;;;4.40;;
10705;SDS011;5404;42.656;23.336;2023-08-12T00:23:03;4.90;;;3.70;;
10705;SDS011;5404;42.656;23.336;2023-08-12T00:25:28;5.53;;;3.65;;
10705;SDS011;5404;42.656;23.336;2023-08-12T00:27:54;5.93;;;3.70;;
10705;SDS011;5404;42.656;23.336;2023-08-12T00:30:19;5.88;;;3.83;;
10705;SDS011;5404;42.656;23.336;2023-08-12T00:32:45;5.80;;;3.78;;
10705;SDS011;5404;42.656;23.336;2023-08-12T00:35:10;10.13;;;3.35;;
10705;SDS011;5404;42.656;23.336;2023-08-12T00:37:36;4.22;;;3.42;;
10705;SDS011;5404;42.656;23.336;2023-08-12T00:40:01;5.35;;;3.85;;
10705;SDS011;5404;42.656;23.336;2023-08-12T00:42:27;8.35;;;3.80;;
10705;SDS011;5404;42.656;23.336;2023-08-12T00:44:52;4.38;;;3.55;;
10705;SDS011;5404;42.656;23.336;2023-08-12T00:47:17;4.57;;;3.50;;
10705;SDS011;5404;42.656;23.336;2023-08-12T00:49:43;6.70;;;3.78;;
10705;SDS011;5404;42.656;23.336;2023-08-12T00:52:11;7.63;;;3.53;;
10705;SDS011;5404;42.656;23.336;2023-08-12T00:54:40;5.28;;;3.60;;
10705;SDS011;5404;42.656;23.336;2023-08-12T00:57:06;7.60;;;4.43;;
10705;SDS011;5404;42.656;23.336;2023-08-12T00:59:32;6.03;;;4.03;;
10705;SDS011;5404;42.656;23.336;2023-08-12T01:02:00;4.65;;;3.85;;
10705;SDS011;5404;42.656;23.336;2023-08-12T01:04:27;6.70;;;3.67;;
10705;SDS011;5404;42.656;23.336;2023-08-12T01:06:52;6.15;;;3.50;;
10705;SDS011;5404;42.656;23.336;2023-08-12T01:09:18;6.45;;;3.83;;
10705;SDS011;5404;42.656;23.336;2023-08-12T01:17:21;4.07;;;3.58;;
10705;SDS011;5404;42.656;23.336;2023-08-12T01:19:47;8.88;;;3.50;;
10705;SDS011;5404;42.656;23.336;2023-08-12T01:22:12;7.07;;;3.70;;
10705;SDS011;5404;42.656;23.336;2023-08-12T01:24:40;8.23;;;3.47;;
10705;SDS011;5404;42.656;23.336;2023-08-12T01:27:07;4.68;;;3.40;;
10705;SDS011;5404;42.656;23.336;2023-08-12T01:29:34;6.55;;;3.75;;
10705;SDS011;5404;42.656;23.336;2023-08-12T01:32:11;5.10;;;3.60;;
10705;SDS011;5404;42.656;23.336;2023-08-12T01:34:58;5.63;;;3.65;;
10705;SDS011;5404;42.656;23.336;2023-08-12T01:37:32;5.95;;;3.75;;
10705;SDS011;5404;42.656;23.336;2023-08-12T01:42:30;9.20;;;3.50;;
10705;SDS011;5404;42.656;23.336;2023-08-12T01:45:00;5.60;;;3.70;;
10705;SDS011;5404;42.656;23.336;2023-08-12T01:47:27;4.53;;;3.33;;
10705;SDS011;5404;42.656;23.336;2023-08-12T01:49:53;8.23;;;3.42;;
10705;SDS011;5404;42.656;23.336;2023-08-12T01:52:18;4.93;;;3.47;;
10705;SDS011;5404;42.656;23.336;2023-08-12T01:54:44;9.95;;;3.58;;
10705;SDS011;5404;42.656;23.336;2023-08-12T01:57:09;7.60;;;3.67;;
10705;SDS011;5404;42.656;23.336;2023-08-12T01:59:35;8.27;;;3.70;;
10705;SDS011;5404;42.656;23.336;2023-08-12T02:02:01;5.38;;;3.50;;
10705;SDS011;5404;42.656;23.336;2023-08-12T02:04:26;6.28;;;3.45;;
10705;SDS011;5404;42.656;23.336;2023-08-12T02:06:52;6.88;;;3.53;;
10705;SDS011;5404;42.656;23.336;2023-08-12T02:09:19;5.05;;;3.25;;
10705;SDS011;5404;42.656;23.336;2023-08-12T02:11:44;4.45;;;3.40;;
10705;SDS011;5404;42.656;23.336;2023-08-12T02:14:09;5.18;;;3.42;;
10705;SDS011;5404;42.656;23.336;2023-08-12T02:16:35;6.82;;;3.38;;
10705;SDS011;5404;42.656;23.336;2023-08-12T02:19:00;4.35;;;3.30;;
10705;SDS011;5404;42.656;23.336;2023-08-12T02:21:26;6.03;;;3.33;;
10705;SDS011;5404;42.656;23.336;2023-08-12T02:23:51;5.00;;;3.20;;
10705;SDS011;5404;42.656;23.336;2023-08-12T02:26:17;6.00;;;3.72;;
10705;SDS011;5404;42.656;23.336;2023-08-12T02:28:42;7.63;;;3.08;;
10705;SDS011;5404;42.656;23.336;2023-08-12T02:31:07;4.65;;;3.28;;
10705;SDS011;5404;42.656;23.336;2023-08-12T02:33:33;8.20;;;3.83;;
10705;SDS011;5404;42.656;23.336;2023-08-12T02:35:58;8.88;;;3.72;;
10705;SDS011;5404;42.656;23.336;2023-08-12T02:38:24;5.38;;;2.85;;
10705;SDS011;5404;42.656;23.336;2023-08-12T02:40:49;6.50;;;3.20;;
10705;SDS011;5404;42.656;23.336;2023-08-12T02:43:18;7.13;;;3.03;;
10705;SDS011;5404;42.656;23.336;2023-08-12T02:45:44;7.25;;;3.40;;
10705;SDS011;5404;42.656;23.336;2023-08-12T02:48:10;5.57;;;3.35;;
10705;SDS011;5404;42.656;23.336;2023-08-12T02:50:36;5.68;;;3.70;;
10705;SDS011;5404;42.656;23.336;2023-08-12T02:53:02;9.93;;;3.50;;
10705;SDS011;5404;42.656;23.336;2023-08-12T02:55:28;7.68;;;3.55;;
10705;SDS011;5404;42.656;23.336;2023-08-12T02:57:54;7.90;;;3.45;;
10705;SDS011;5404;42.656;23.336;2023-08-12T03:00:20;10.00;;;4.30;;
10705;SDS011;5404;42.656;23.336;2023-08-12T03:02:45;5.85;;;3.25;;
10705;SDS011;5404;42.656;23.336;2023-08-12T03:05:11;10.32;;;4.25;;
10705;SDS011;5404;42.656;23.336;2023-08-12T03:07:36;7.22;;;3.75;;
10705;SDS011;5404;42.656;23.336;2023-08-12T03:10:01;9.23;;;4.10;;
10705;SDS011;5404;42.656;23.336;2023-08-12T03:12:27;10.77;;;4.15;;
10705;SDS011;5404;42.656;23.336;2023-08-12T03:14:52;12.15;;;3.90;;
10705;SDS011;5404;42.656;23.336;2023-08-12T03:17:18;8.20;;;4.13;;
10705;SDS011;5404;42.656;23.336;2023-08-12T03:19:43;16.13;;;4.32;;
10705;SDS011;5404;42.656;23.336;2023-08-12T03:22:09;10.00;;;4.30;;
10705;SDS011;5404;42.656;23.336;2023-08-12T03:24:34;19.08;;;5.35;;
10705;SDS011;5404;42.656;23.336;2023-08-12T03:27:00;14.40;;;4.30;;
10705;SDS011;5404;42.656;23.336;2023-08-12T03:29:25;12.40;;;4.30;;
10705;SDS011;5404;42.656;23.336;2023-08-12T03:31:51;15.02;;;4.40;;
10705;SDS011;5404;42.656;23.336;2023-08-12T03:34:16;15.80;;;5.10;;
10705;SDS011;5404;42.656;23.336;2023-08-12T03:36:42;23.38;;;4.55;;
10705;SDS011;5404;42.656;23.336;2023-08-12T03:39:07;19.55;;;4.28;;
10705;SDS011;5404;42.656;23.336;2023-08-12T03:41:33;13.43;;;4.82;;
10705;SDS011;5404;42.656;23.336;2023-08-12T03:43:58;10.13;;;4.63;;
10705;SDS011;5404;42.656;23.336;2023-08-12T03:46:24;11.60;;;4.22;;
10705;SDS011;5404;42.656;23.336;2023-08-12T03:48:49;16.90;;;5.22;;
10705;SDS011;5404;42.656;23.336;2023-08-12T03:51:15;23.88;;;5.57;;
10705;SDS011;5404;42.656;23.336;2023-08-12T03:53:40;22.08;;;4.65;;
10705;SDS011;5404;42.656;23.336;2023-08-12T03:56:06;22.73;;;5.35;;
10705;SDS011;5404;42.656;23.336;2023-08-12T03:58:31;24.48;;;4.65;;
10705;SDS011;5404;42.656;23.336;2023-08-12T04:00:57;20.17;;;4.85;;
10705;SDS011;5404;42.656;23.336;2023-08-12T04:03:22;30.20;;;5.32;;
10705;SDS011;5404;42.656;23.336;2023-08-12T04:05:48;33.53;;;5.60;;
10705;SDS011;5404;42.656;23.336;2023-08-12T04:08:18;37.13;;;6.20;;
10705;SDS011;5404;42.656;23.336;2023-08-12T04:10:47;34.58;;;5.50;;
10705;SDS011;5404;42.656;23.336;2023-08-12T04:13:14;47.28;;;4.90;;
10705;SDS011;5404;42.656;23.336;2023-08-12T04:15:40;19.58;;;5.45;;
10705;SDS011;5404;42.656;23.336;2023-08-12T04:18:06;17.10;;;4.75;;
10705;SDS011;5404;42.656;23.336;2023-08-12T04:20:32;19.17;;;4.90;;
10705;SDS011;5404;42.656;23.336;2023-08-12T04:22:57;55.67;;;7.50;;
10705;SDS011;5404;42.656;23.336;2023-08-12T04:25:23;74.25;;;8.40;;
10705;SDS011;5404;42.656;23.336;2023-08-12T04:27:49;31.00;;;6.00;;
10705;SDS011;5404;42.656;23.336;2023-08-12T04:30:15;27.38;;;5.82;;
10705;SDS011;5404;42.656;23.336;2023-08-12T04:32:41;7.10;;;3.95;;
10705;SDS011;5404;42.656;23.336;2023-08-12T04:35:07;13.30;;;4.03;;
10705;SDS011;5404;42.656;23.336;2023-08-12T04:37:33;11.18;;;4.45;;
10705;SDS011;5404;42.656;23.336;2023-08-12T04:39:59;32.47;;;4.43;;
10705;SDS011;5404;42.656;23.336;2023-08-12T04:42:24;8.25;;;3.95;;
10705;SDS011;5404;42.656;23.336;2023-08-12T04:44:50;15.95;;;4.38;;
10705;SDS011;5404;42.656;23.336;2023-08-12T04:47:15;11.88;;;4.18;;
10705;SDS011;5404;42.656;23.336;2023-08-12T04:49:41;11.35;;;4.47;;
10705;SDS011;5404;42.656;23.336;2023-08-12T04:52:06;16.58;;;4.10;;
10705;SDS011;5404;42.656;23.336;2023-08-12T04:54:32;9.27;;;4.28;;
10705;SDS011;5404;42.656;23.336;2023-08-12T04:56:58;11.35;;;4.03;;
10705;SDS011;5404;42.656;23.336;2023-08-12T04:59:24;10.32;;;3.95;;
10705;SDS011;5404;42.656;23.336;2023-08-12T05:01:50;8.65;;;4.50;;
10705;SDS011;5404;42.656;23.336;2023-08-12T05:04:15;8.70;;;3.28;;
10705;SDS011;5404;42.656;23.336;2023-08-12T05:06:41;4.85;;;3.10;;
10705;SDS011;5404;42.656;23.336;2023-08-12T05:09:06;7.18;;;3.28;;
10705;SDS011;5404;42.656;23.336;2023-08-12T05:11:32;5.93;;;3.25;;
10705;SDS011;5404;42.656;23.336;2023-08-12T05:13:57;4.68;;;3.30;;
10705;SDS011;5404;42.656;23.336;2023-08-12T05:16:23;5.47;;;3.10;;
10705;SDS011;5404;42.656;23.336;2023-08-12T05:18:50;4.38;;;2.97;;
10705;SDS011;5404;42.656;23.336;2023-08-12T05:21:15;8.38;;;3.15;;
10705;SDS011;5404;42.656;23.336;2023-08-12T05:23:41;5.55;;;3.13;;
10705;SDS011;5404;42.656;23.336;2023-08-12T05:26:06;6.30;;;3.25;;
10705;SDS011;5404;42.656;23.336;2023-08-12T05:28:32;5.63;;;3.00;;
10705;SDS011;5404;42.656;23.336;2023-08-12T05:30:57;22.70;;;3.78;;
10705;SDS011;5404;42.656;23.336;2023-08-12T05:33:22;4.75;;;3.05;;
10705;SDS011;5404;42.656;23.336;2023-08-12T05:35:48;4.07;;;3.13;;
10705;SDS011;5404;42.656;23.336;2023-08-12T05:38:14;5.82;;;3.28;;
10705;SDS011;5404;42.656;23.336;2023-08-12T05:40:39;4.45;;;3.40;;
10705;SDS011;5404;42.656;23.336;2023-08-12T05:43:05;3.65;;;2.85;;
10705;SDS011;5404;42.656;23.336;2023-08-12T05:45:31;5.10;;;2.65;;
10705;SDS011;5404;42.656;23.336;2023-08-12T05:47:56;6.30;;;3.42;;
10705;SDS011;5404;42.656;23.336;2023-08-12T05:50:22;4.93;;;3.10;;
10705;SDS011;5404;42.656;23.336;2023-08-12T05:52:47;5.13;;;3.08;;
10705;SDS011;5404;42.656;23.336;2023-08-12T05:55:13;7.43;;;3.40;;
10705;SDS011;5404;42.656;23.336;2023-08-12T05:57:38;4.85;;;2.90;;
10705;SDS011;5404;42.656;23.336;2023-08-12T06:00:04;4.03;;;2.60;;
10705;SDS011;5404;42.656;23.336;2023-08-12T06:02:30;5.65;;;2.92;;
10705;SDS011;5404;42.656;23.336;2023-08-12T06:04:55;5.63;;;3.00;;
10705;SDS011;5404;42.656;23.336;2023-08-12T06:07:21;4.82;;;3.30;;
10705;SDS011;5404;42.656;23.336;2023-08-12T06:09:48;4.45;;;3.20;;
10705;SDS011;5404;42.656;23.336;2023-08-12T06:12:13;6.43;;;3.15;;
10705;SDS011;5404;42.656;23.336;2023-08-12T06:14:39;7.78;;;3.45;;
10705;SDS011;5404;42.656;23.336;2023-08-12T06:17:05;7.60;;;3.38;;
10705;SDS011;5404;42.656;23.336;2023-08-12T06:19:30;7.90;;;3.67;;
10705;SDS011;5404;42.656;23.336;2023-08-12T06:21:55;11.57;;;3.40;;
10705;SDS011;5404;42.656;23.336;2023-08-12T06:24:21;4.75;;;3.55;;
10705;SDS011;5404;42.656;23.336;2023-08-12T06:26:46;6.35;;;3.20;;
10705;SDS011;5404;42.656;23.336;2023-08-12T06:29:12;20.67;;;4.40;;
10705;SDS011;5404;42.656;23.336;2023-08-12T06:31:37;8.23;;;3.63;;
10705;SDS011;5404;42.656;23.336;2023-08-12T06:34:03;5.13;;;2.90;;
10705;SDS011;5404;42.656;23.336;2023-08-12T06:36:28;6.13;;;3.08;;
10705;SDS011;5404;42.656;23.336;2023-08-12T06:38:53;13.88;;;3.75;;
10705;SDS011;5404;42.656;23.336;2023-08-12T06:41:19;5.85;;;3.60;;
10705;SDS011;5404;42.656;23.336;2023-08-12T06:43:44;12.10;;;3.97;;
10705;SDS011;5404;42.656;23.336;2023-08-12T06:46:10;4.80;;;3.42;;
10705;SDS011;5404;42.656;23.336;2023-08-12T06:48:35;8.07;;;3.78;;
10705;SDS011;5404;42.656;23.336;2023-08-12T06:51:00;9.18;;;4.20;;
10705;SDS011;5404;42.656;23.336;2023-08-12T06:53:31;7.78;;;3.97;;
10705;SDS011;5404;42.656;23.336;2023-08-12T06:55:57;12.77;;;3.75;;
10705;SDS011;5404;42.656;23.336;2023-08-12T06:58:22;9.77;;;5.25;;
10705;SDS011;5404;42.656;23.336;2023-08-12T07:00:48;10.85;;;4.20;;
10705;SDS011;5404;42.656;23.336;2023-08-12T07:03:13;12.90;;;6.25;;
10705;SDS011;5404;42.656;23.336;2023-08-12T07:05:39;7.68;;;4.47;;
10705;SDS011;5404;42.656;23.336;2023-08-12T07:08:04;7.63;;;3.80;;
10705;SDS011;5404;42.656;23.336;2023-08-12T07:10:30;9.23;;;4.05;;
10705;SDS011;5404;42.656;23.336;2023-08-12T07:12:55;9.27;;;3.63;;
10705;SDS011;5404;42.656;23.336;2023-08-12T07:15:21;7.97;;;4.20;;
10705;SDS011;5404;42.656;23.336;2023-08-12T07:17:46;7.50;;;3.92;;
10705;SDS011;5404;42.656;23.336;2023-08-12T07:20:12;14.38;;;6.30;;
10705;SDS011;5404;42.656;23.336;2023-08-12T07:22:37;4.97;;;3.10;;
10705;SDS011;5404;42.656;23.336;2023-08-12T07:25:02;8.07;;;3.33;;
10705;SDS011;5404;42.656;23.336;2023-08-12T07:27:28;5.28;;;3.65;;
10705;SDS011;5404;42.656;23.336;2023-08-12T07:29:54;5.57;;;3.30;;
10705;SDS011;5404;42.656;23.336;2023-08-12T07:32:19;7.40;;;3.50;;
10705;SDS011;5404;42.656;23.336;2023-08-12T07:34:45;7.88;;;3.60;;
10705;SDS011;5404;42.656;23.336;2023-08-12T07:37:11;9.30;;;3.17;;
10705;SDS011;5404;42.656;23.336;2023-08-12T07:39:36;7.78;;;4.00;;
10705;SDS011;5404;42.656;23.336;2023-08-12T07:42:02;7.60;;;3.72;;
10705;SDS011;5404;42.656;23.336;2023-08-12T07:44:28;5.20;;;3.53;;
10705;SDS011;5404;42.656;23.336;2023-08-12T07:46:53;10.00;;;4.25;;
10705;SDS011;5404;42.656;23.336;2023-08-12T07:49:19;6.15;;;3.60;;
10705;SDS011;5404;42.656;23.336;2023-08-12T07:51:44;5.35;;;3.30;;
10705;SDS011;5404;42.656;23.336;2023-08-12T07:54:09;5.32;;;3.60;;
10705;SDS011;5404;42.656;23.336;2023-08-12T07:56:35;12.35;;;3.65;;
10705;SDS011;5404;42.656;23.336;2023-08-12T07:59:00;6.20;;;4.05;;
10705;SDS011;5404;42.656;23.336;2023-08-12T08:01:26;6.65;;;3.72;;
10705;SDS011;5404;42.656;23.336;2023-08-12T08:03:51;6.18;;;3.38;;
10705;SDS011;5404;42.656;23.336;2023-08-12T08:06:16;5.28;;;3.45;;
10705;SDS011;5404;42.656;23.336;2023-08-12T08:08:42;6.88;;;3.92;;
10705;SDS011;5404;42.656;23.336;2023-08-12T08:11:08;9.73;;;3.85;;
10705;SDS011;5404;42.656;23.336;2023-08-12T08:13:33;5.47;;;3.25;;
10705;SDS011;5404;42.656;23.336;2023-08-12T08:15:59;5.90;;;4.00;;
10705;SDS011;5404;42.656;23.336;2023-08-12T08:18:24;4.50;;;3.33;;
10705;SDS011;5404;42.656;23.336;2023-08-12T08:20:49;5.57;;;3.65;;
10705;SDS011;5404;42.656;23.336;2023-08-12T08:23:15;4.00;;;3.08;;
10705;SDS011;5404;42.656;23.336;2023-08-12T08:25:40;3.88;;;3.45;;
10705;SDS011;5404;42.656;23.336;2023-08-12T08:28:06;6.95;;;4.55;;
10705;SDS011;5404;42.656;23.336;2023-08-12T08:30:31;10.00;;;3.30;;
10705;SDS011;5404;42.656;23.336;2023-08-12T08:32:57;5.00;;;3.50;;
10705;SDS011;5404;42.656;23.336;2023-08-12T08:35:22;5.25;;;3.42;;
10705;SDS011;5404;42.656;23.336;2023-08-12T08:37:47;3.78;;;2.95;;
10705;SDS011;5404;42.656;23.336;2023-08-12T08:40:13;3.80;;;3.35;;
10705;SDS011;5404;42.656;23.336;2023-08-12T08:42:38;6.20;;;2.72;;
10705;SDS011;5404;42.656;23.336;2023-08-12T08:45:06;7.63;;;3.13;;
10705;SDS011;5404;42.656;23.336;2023-08-12T08:47:38;5.45;;;3.15;;
10705;SDS011;5404;42.656;23.336;2023-08-12T08:50:04;4.22;;;2.83;;
10705;SDS011;5404;42.656;23.336;2023-08-12T08:52:30;9.18;;;3.13;;
10705;SDS011;5404;42.656;23.336;2023-08-12T08:54:57;5.65;;;2.90;;
10705;SDS011;5404;42.656;23.336;2023-08-12T08:57:25;10.85;;;3.83;;
10705;SDS011;5404;42.656;23.336;2023-08-12T08:59:53;4.65;;;2.92;;
10705;SDS011;5404;42.656;23.336;2023-08-12T09:02:19;6.00;;;3.30;;
10705;SDS011;5404;42.656;23.336;2023-08-12T09:04:45;3.50;;;2.75;;
10705;SDS011;5404;42.656;23.336;2023-08-12T09:07:11;8.82;;;3.42;;
10705;SDS011;5404;42.656;23.336;2023-08-12T09:09:39;5.05;;;3.00;;
10705;SDS011;5404;42.656;23.336;2023-08-12T09:12:09;7.65;;;2.90;;
10705;SDS011;5404;42.656;23.336;2023-08-12T09:14:39;12.07;;;3.22;;
10705;SDS011;5404;42.656;23.336;2023-08-12T09:17:05;19.33;;;3.47;;
10705;SDS011;5404;42.656;23.336;2023-08-12T09:19:31;4.32;;;2.60;;
10705;SDS011;5404;42.656;23.336;2023-08-12T09:21:56;4.10;;;2.90;;
10705;SDS011;5404;42.656;23.336;2023-08-12T09:24:25;3.58;;;2.55;;
10705;SDS011;5404;42.656;23.336;2023-08-12T09:26:51;5.53;;;3.20;;
10705;SDS011;5404;42.656;23.336;2023-08-12T09:29:17;4.80;;;2.90;;
10705;SDS011;5404;42.656;23.336;2023-08-12T09:31:43;3.10;;;2.65;;
10705;SDS011;5404;42.656;23.336;2023-08-12T09:34:08;4.03;;;2.70;;
10705;SDS011;5404;42.656;23.336;2023-08-12T09:36:33;5.65;;;2.88;;
10705;SDS011;5404;42.656;23.336;2023-08-12T09:38:59;4.70;;;2.72;;
10705;SDS011;5404;42.656;23.336;2023-08-12T09:41:28;7.65;;;3.17;;
10705;SDS011;5404;42.656;23.336;2023-08-12T09:43:54;8.50;;;3.00;;
10705;SDS011;5404;42.656;23.336;2023-08-12T09:46:23;7.20;;;2.78;;
10705;SDS011;5404;42.656;23.336;2023-08-12T09:48:50;4.80;;;2.72;;
10705;SDS011;5404;42.656;23.336;2023-08-12T09:51:17;5.88;;;2.60;;
10705;SDS011;5404;42.656;23.336;2023-08-12T09:53:43;4.43;;;2.90;;
10705;SDS011;5404;42.656;23.336;2023-08-12T09:56:11;5.38;;;3.10;;
10705;SDS011;5404;42.656;23.336;2023-08-12T09:58:37;9.10;;;3.22;;
10705;SDS011;5404;42.656;23.336;2023-08-12T10:01:04;7.82;;;2.50;;
10705;SDS011;5404;42.656;23.336;2023-08-12T10:03:33;5.40;;;2.25;;
10705;SDS011;5404;42.656;23.336;2023-08-12T10:06:01;3.88;;;2.00;;
10705;SDS011;5404;42.656;23.336;2023-08-12T10:08:28;3.25;;;2.15;;
10705;SDS011;5404;42.656;23.336;2023-08-12T10:10:54;2.80;;;2.25;;
10705;SDS011;5404;42.656;23.336;2023-08-12T10:13:23;3.13;;;2.28;;
10705;SDS011;5404;42.656;23.336;2023-08-12T10:15:51;2.90;;;2.10;;
10705;SDS011;5404;42.656;23.336;2023-08-12T10:18:18;3.03;;;2.30;;
10705;SDS011;5404;42.656;23.336;2023-08-12T10:20:44;3.63;;;2.15;;
10705;SDS011;5404;42.656;23.336;2023-08-12T10:23:14;4.95;;;2.10;;
10705;SDS011;5404;42.656;23.336;2023-08-12T10:25:41;2.58;;;1.85;;
10705;SDS011;5404;42.656;23.336;2023-08-12T10:28:08;3.08;;;2.38;;
10705;SDS011;5404;42.656;23.336;2023-08-12T10:30:34;2.95;;;2.15;;
10705;SDS011;5404;42.656;23.336;2023-08-12T10:33:00;5.63;;;2.08;;
10705;SDS011;5404;42.656;23.336;2023-08-12T10:35:44;5.50;;;2.50;;
10705;SDS011;5404;42.656;23.336;2023-08-12T10:40:46;3.83;;;2.38;;
10705;SDS011;5404;42.656;23.336;2023-08-12T10:43:12;2.20;;;2.00;;
10705;SDS011;5404;42.656;23.336;2023-08-12T10:45:56;7.13;;;2.03;;
10705;SDS011;5404;42.656;23.336;2023-08-12T10:48:23;1.90;;;1.73;;
10705;SDS011;5404;42.656;23.336;2023-08-12T10:50:53;3.92;;;2.00;;
10705;SDS011;5404;42.656;23.336;2023-08-12T10:55:54;2.35;;;2.10;;
10705;SDS011;5404;42.656;23.336;2023-08-12T10:58:26;5.18;;;2.60;;
10705;SDS011;5404;42.656;23.336;2023-08-12T11:01:18;7.00;;;2.55;;
10705;SDS011;5404;42.656;23.336;2023-08-12T11:03:45;4.65;;;2.22;;
10705;SDS011;5404;42.656;23.336;2023-08-12T11:06:13;3.05;;;2.30;;
10705;SDS011;5404;42.656;23.336;2023-08-12T11:08:46;4.97;;;2.20;;
10705;SDS011;5404;42.656;23.336;2023-08-12T11:11:22;3.00;;;2.00;;
10705;SDS011;5404;42.656;23.336;2023-08-12T11:13:58;3.13;;;2.10;;
10705;SDS011;5404;42.656;23.336;2023-08-12T11:16:36;6.03;;;2.75;;
10705;SDS011;5404;42.656;23.336;2023-08-12T11:19:02;6.35;;;2.40;;
10705;SDS011;5404;42.656;23.336;2023-08-12T11:21:28;3.80;;;2.40;;
10705;SDS011;5404;42.656;23.336;2023-08-12T11:23:54;2.30;;;2.00;;
10705;SDS011;5404;42.656;23.336;2023-08-12T11:26:19;5.20;;;2.30;;
10705;SDS011;5404;42.656;23.336;2023-08-12T11:28:47;4.18;;;2.42;;
10705;SDS011;5404;42.656;23.336;2023-08-12T11:31:12;2.45;;;2.03;;
10705;SDS011;5404;42.656;23.336;2023-08-12T11:33:38;3.13;;;1.83;;
10705;SDS011;5404;42.656;23.336;2023-08-12T11:36:03;4.65;;;1.88;;
10705;SDS011;5404;42.656;23.336;2023-08-12T11:38:29;5.28;;;2.13;;
10705;SDS011;5404;42.656;23.336;2023-08-12T11:40:55;7.95;;;2.78;;
10705;SDS011;5404;42.656;23.336;2023-08-12T11:43:21;4.80;;;1.85;;
10705;SDS011;5404;42.656;23.336;2023-08-12T11:45:47;4.35;;;1.88;;
10705;SDS011;5404;42.656;23.336;2023-08-12T11:48:13;1.73;;;1.50;;
10705;SDS011;5404;42.656;23.336;2023-08-12T11:50:39;5.93;;;1.80;;
10705;SDS011;5404;42.656;23.336;2023-08-12T11:53:05;2.47;;;1.77;;
10705;SDS011;5404;42.656;23.336;2023-08-12T11:55:30;4.90;;;1.90;;
10705;SDS011;5404;42.656;23.336;2023-08-12T11:57:57;2.88;;;2.00;;
10705;SDS011;5404;42.656;23.336;2023-08-12T12:00:23;3.13;;;1.77;;
10705;SDS011;5404;42.656;23.336;2023-08-12T12:02:52;2.83;;;1.67;;
10705;SDS011;5404;42.656;23.336;2023-08-12T12:05:21;3.35;;;1.60;;
10705;SDS011;5404;42.656;23.336;2023-08-12T12:07:48;2.17;;;1.55;;
10705;SDS011;5404;42.656;23.336;2023-08-12T12:10:17;4.35;;;1.50;;
10705;SDS011;5404;42.656;23.336;2023-08-12T12:12:44;2.85;;;2.03;;
10705;SDS011;5404;42.656;23.336;2023-08-12T12:15:12;3.67;;;1.90;;
10705;SDS011;5404;42.656;23.336;2023-08-12T12:17:40;3.60;;;1.40;;
10705;SDS011;5404;42.656;23.336;2023-08-12T12:20:06;3.58;;;1.85;;
10705;SDS011;5404;42.656;23.336;2023-08-12T12:22:35;3.03;;;1.95;;
10705;SDS011;5404;42.656;23.336;2023-08-12T12:25:05;4.55;;;1.92;;
10705;SDS011;5404;42.656;23.336;2023-08-12T12:27:32;6.53;;;2.00;;
10705;SDS011;5404;42.656;23.336;2023-08-12T12:29:59;2.33;;;1.60;;
10705;SDS011;5404;42.656;23.336;2023-08-12T12:32:25;2.35;;;2.00;;
10705;SDS011;5404;42.656;23.336;2023-08-12T12:34:51;2.97;;;1.52;;
10705;SDS011;5404;42.656;23.336;2023-08-12T12:37:18;5.18;;;1.80;;
10705;SDS011;5404;42.656;23.336;2023-08-12T12:39:43;4.85;;;1.98;;
10705;SDS011;5404;42.656;23.336;2023-08-12T12:42:10;3.28;;;2.03;;
10705;SDS011;5404;42.656;23.336;2023-08-12T12:44:36;1.92;;;1.63;;
10705;SDS011;5404;42.656;23.336;2023-08-12T12:47:02;2.50;;;1.90;;
10705;SDS011;5404;42.656;23.336;2023-08-12T12:49:28;4.57;;;1.90;;
10705;SDS011;5404;42.656;23.336;2023-08-12T12:51:54;6.47;;;2.35;;
10705;SDS011;5404;42.656;23.336;2023-08-12T12:54:19;3.55;;;2.13;;
10705;SDS011;5404;42.656;23.336;2023-08-12T12:56:45;2.20;;;2.00;;
10705;SDS011;5404;42.656;23.336;2023-08-12T12:59:10;5.55;;;2.35;;
10705;SDS011;5404;42.656;23.336;2023-08-12T13:01:36;4.05;;;2.05;;
10705;SDS011;5404;42.656;23.336;2023-08-12T13:04:02;3.60;;;2.50;;
10705;SDS011;5404;42.656;23.336;2023-08-12T13:06:27;7.30;;;2.47;;
10705;SDS011;5404;42.656;23.336;2023-08-12T13:08:54;4.32;;;2.30;;
10705;SDS011;5404;42.656;23.336;2023-08-12T13:11:19;6.25;;;2.10;;
10705;SDS011;5404;42.656;23.336;2023-08-12T13:13:44;4.60;;;2.10;;
10705;SDS011;5404;42.656;23.336;2023-08-12T13:16:10;5.07;;;2.30;;
10705;SDS011;5404;42.656;23.336;2023-08-12T13:18:35;4.82;;;3.30;;
10705;SDS011;5404;42.656;23.336;2023-08-12T13:21:01;5.97;;;2.28;;
10705;SDS011;5404;42.656;23.336;2023-08-12T13:23:27;5.53;;;2.30;;
10705;SDS011;5404;42.656;23.336;2023-08-12T13:25:52;4.45;;;2.03;;
10705;SDS011;5404;42.656;23.336;2023-08-12T13:28:18;5.90;;;2.20;;
10705;SDS011;5404;42.656;23.336;2023-08-12T13:30:44;3.47;;;2.15;;
10705;SDS011;5404;42.656;23.336;2023-08-12T13:35:37;2.87;;;2.10;;
10705;SDS011;5404;42.656;23.336;2023-08-12T13:38:03;6.13;;;1.98;;
10705;SDS011;5404;42.656;23.336;2023-08-12T13:40:29;2.50;;;2.30;;
10705;SDS011;5404;42.656;23.336;2023-08-12T13:42:54;4.93;;;2.45;;
10705;SDS011;5404;42.656;23.336;2023-08-12T13:45:20;4.97;;;2.35;;
10705;SDS011;5404;42.656;23.336;2023-08-12T13:47:45;4.03;;;2.47;;
10705;SDS011;5404;42.656;23.336;2023-08-12T13:50:11;5.80;;;2.53;;
10705;SDS011;5404;42.656;23.336;2023-08-12T13:52:38;4.60;;;1.70;;
10705;SDS011;5404;42.656;23.336;2023-08-12T13:55:04;6.43;;;2.63;;
10705;SDS011;5404;42.656;23.336;2023-08-12T13:57:29;2.45;;;2.00;;
10705;SDS011;5404;42.656;23.336;2023-08-12T13:59:56;3.30;;;2.30;;
10705;SDS011;5404;42.656;23.336;2023-08-12T14:02:21;3.08;;;2.30;;
10705;SDS011;5404;42.656;23.336;2023-08-12T14:04:47;9.65;;;2.58;;
10705;SDS011;5404;42.656;23.336;2023-08-12T14:07:12;6.80;;;2.30;;
10705;SDS011;5404;42.656;23.336;2023-08-12T14:09:41;4.40;;;2.17;;
10705;SDS011;5404;42.656;23.336;2023-08-12T14:12:07;2.28;;;2.03;;
10705;SDS011;5404;42.656;23.336;2023-08-12T14:14:33;2.47;;;1.98;;
10705;SDS011;5404;42.656;23.336;2023-08-12T14:16:58;5.07;;;2.22;;
10705;SDS011;5404;42.656;23.336;2023-08-12T14:19:23;2.85;;;1.92;;
10705;SDS011;5404;42.656;23.336;2023-08-12T14:21:49;2.58;;;1.88;;
10705;SDS011;5404;42.656;23.336;2023-08-12T14:24:14;3.47;;;1.90;;
10705;SDS011;5404;42.656;23.336;2023-08-12T14:26:42;3.90;;;1.83;;
10705;SDS011;5404;42.656;23.336;2023-08-12T14:29:07;3.17;;;2.05;;
10705;SDS011;5404;42.656;23.336;2023-08-12T14:31:33;4.60;;;1.98;;
10705;SDS011;5404;42.656;23.336;2023-08-12T14:33:59;3.67;;;1.90;;
10705;SDS011;5404;42.656;23.336;2023-08-12T14:36:26;2.53;;;2.33;;
10705;SDS011;5404;42.656;23.336;2023-08-12T14:38:51;3.83;;;1.92;;
10705;SDS011;5404;42.656;23.336;2023-08-12T14:41:17;6.75;;;2.40;;
10705;SDS011;5404;42.656;23.336;2023-08-12T14:43:42;3.50;;;1.85;;
10705;SDS011;5404;42.656;23.336;2023-08-12T14:46:08;3.05;;;2.20;;
10705;SDS011;5404;42.656;23.336;2023-08-12T14:48:33;2.50;;;1.75;;
10705;SDS011;5404;42.656;23.336;2023-08-12T14:50:59;4.55;;;1.77;;
10705;SDS011;5404;42.656;23.336;2023-08-12T14:53:24;12.65;;;2.20;;
10705;SDS011;5404;42.656;23.336;2023-08-12T14:55:50;6.93;;;2.10;;